EDDLEDDG

Guest
Details From EDDL - Duesseldorf
To EDDG - Muenster Osnabrueck
Flight Number -
Tags decoded
Created
Modified
Stats Distance 68 nm / 125 km
Max Altitude 0 ft / 0 m
Waypoints 3
Social Downloads 2
Likes 0
Share VATSIM

Download

Looking for another format? Having issues loading an existing format? Contact us
Advertisement - Login to hide

Notes

Requested: EDDL BAM EDDG

Route

EDDL BAM EDDG

ID Type Via Altitude Latitude Longitude Leg Dist Tot Dist Heading (true) Name
O EDDL APT - 0 ft / 0 m 51.28942˚ 6.76664˚ - 0 nm - Duesseldorf
BAM VOR - 0 ft / 0 m 51.32776˚ 7.17698˚ 15 nm 15 nm 81° / 82° BARMEN VORTAC
O EDDG APT - 0 ft / 0 m 52.13458˚ 7.68467˚ 52 nm 67 nm 21° / 21° Muenster Osnabrueck

Altitude Profile

Advertisement - Login to hide

EDDL

Details ICAO EDDL (DUS)
Name Duesseldorf
Region Germany - Civil
Timezone Europe/Berlin (UTC+2.0)
Stats Elevation 146 ft / 45 m (AMSL)
Location 51.289419° 6.766637°
Runways 2
Magnetic Variation 1.868° E

METAR

EDDL 270320Z 04003KT CAVOK 16/13 Q1018 NOSIG

Decode

TAF

TAF EDDL 262300Z 2700/2806 06005KT CAVOK PROB30 TEMPO 2714/2717 24010KT TSRAGR SCT045CB PROB30 TEMPO 2719/2722 15010KT TSRA BKN040CB

Decode

Departure Runways

ID Width Length Bearing (true) Bearing (mag) Surface Threshold Offset Overrun Length
05L 148 ft / 45 m 8,895 ft / 2,711 m 52.72° 50.85° Concrete 994 ft / 303 m 906 ft / 276 m
05R 148 ft / 45 m 9,858 ft / 3,005 m 52.68° 50.81° Concrete 984 ft / 300 m 659 ft / 201 m
23L 148 ft / 45 m 9,858 ft / 3,005 m 232.71° 230.84° Concrete 984 ft / 300 m 702 ft / 214 m
23R 148 ft / 45 m 8,895 ft / 2,711 m 232.75° 230.88° Concrete 971 ft / 296 m 928 ft / 283 m

EDDG

Details ICAO EDDG (FMO)
Name Muenster Osnabrueck
Region Germany - Civil
Timezone Europe/Berlin (UTC+2.0)
Stats Elevation 159 ft / 48 m (AMSL)
Location 52.134580° 7.684669°
Runways 1
Magnetic Variation 2.130° E

METAR

EDDG 270320Z 06004KT 020V120 CAVOK 17/11 Q1020 NOSIG

Decode

TAF

TAF EDDG 262300Z 2700/2724 05007KT CAVOK PROB40 TEMPO 2719/2723 15010KT TSRA BKN045CB

Decode

Destination Runways

ID Width Length Bearing (true) Bearing (mag) Surface Threshold Offset Overrun Length
07 148 ft / 45 m 7,303 ft / 2,226 m 70.93° 68.80° Asphalt 151 ft / 46 m 0 ft / 0 m
25 148 ft / 45 m 7,303 ft / 2,226 m 250.96° 248.83° Asphalt 292 ft / 89 m 0 ft / 0 m

Approach Navaids

Runway Type Ident Frequency Range Bearing (true) Bearing (mag) Slope Elevation
07 Localiser IMOE 111.90 MHz 18 nm / 33 km 70.93° 68.80° - 156 ft / 48 m (AMSL)
07 Glidescope IMOE 111.90 MHz 10 nm / 19 km 70.95° 68.82° 3.00° 156 ft / 48 m (AMSL)
25 Localiser IMOW 110.10 MHz 18 nm / 33 km 251.02° 248.89° - 159 ft / 48 m (AMSL)
25 Glidescope IMOW 110.10 MHz 10 nm / 19 km 250.95° 248.82° 3.00° 159 ft / 48 m (AMSL)

Popular Alternatives